Time;durP1;ratioP1;P1;durP2;ratioP2;P2;SDS_P1;SDS_P2;PMS_P1;PMS_P2;Temp;Humidity;BMP_temperature;BMP_pressure;BME280_temperature;BME280_humidity;BME280_pressure;Samples;Min_cycle;Max_cycle;Signal;HPM_P1;HPM_P2
2022/08/27 00:00:24;;;;;;;6.82;2.50;;;14.80;99.90;;;;;;4999583;28;20132;-86
2022/08/27 00:02:50;;;;;;;6.70;2.60;;;14.70;99.90;;;;;;4999340;28;20041;-86
2022/08/27 00:05:17;;;;;;;10.23;2.90;;;14.70;99.90;;;;;;5015765;28;20053;-87
2022/08/27 00:07:43;;;;;;;6.60;2.58;;;14.60;99.90;;;;;;4999280;28;20467;-87
2022/08/27 00:10:21;;;;;;;11.05;3.40;;;14.60;99.90;;;;;;5016289;28;20045;-87
2022/08/27 00:12:47;;;;;;;7.85;2.63;;;14.60;99.90;;;;;;5033303;28;20490;-87
2022/08/27 00:15:14;;;;;;;7.13;2.72;;;14.50;99.90;;;;;;4999445;28;20162;-87
2022/08/27 00:17:40;;;;;;;7.57;2.85;;;14.50;99.90;;;;;;4999346;28;20088;-87
2022/08/27 00:20:07;;;;;;;6.15;2.80;;;14.40;99.90;;;;;;5015468;28;20526;-87
2022/08/27 00:22:33;;;;;;;7.95;3.28;;;14.30;99.90;;;;;;5015970;28;20503;-86
2022/08/27 00:24:59;;;;;;;5.88;2.95;;;14.30;99.90;;;;;;4999217;28;20545;-87
2022/08/27 00:27:25;;;;;;;9.23;2.97;;;14.20;99.90;;;;;;4999451;28;20084;-87
2022/08/27 00:29:50;;;;;;;8.30;2.92;;;14.20;99.90;;;;;;5015732;28;20084;-87
2022/08/27 00:32:16;;;;;;;10.98;3.20;;;14.10;99.90;;;;;;4999371;28;20045;-87
2022/08/27 00:34:42;;;;;;;9.52;3.42;;;14.10;99.90;;;;;;5015450;28;20411;-87
2022/08/27 00:37:08;;;;;;;7.70;2.97;;;14.10;99.90;;;;;;5015580;28;20438;-86
2022/08/27 00:39:35;;;;;;;9.57;3.42;;;14.10;99.90;;;;;;5015992;28;20045;-87
2022/08/27 00:42:02;;;;;;;9.50;3.10;;;14.10;99.90;;;;;;5015749;28;20137;-86
2022/08/27 00:44:29;;;;;;;4.90;2.90;;;14.10;99.90;;;;;;5014980;28;20068;-86
2022/08/27 00:46:59;;;;;;;5.72;3.17;;;14.00;99.90;;;;;;5015703;28;20084;-87
2022/08/27 00:49:35;;;;;;;8.13;2.85;;;14.00;99.90;;;;;;5015642;28;20057;-87
2022/08/27 00:52:08;;;;;;;6.68;3.05;;;14.00;99.90;;;;;;5032181;28;20054;-87
2022/08/27 00:54:33;;;;;;;7.90;3.25;;;14.00;99.90;;;;;;5016447;28;20454;-87
2022/08/27 00:57:00;;;;;;;10.07;3.53;;;14.00;99.90;;;;;;5002855;28;20124;-86
2022/08/27 00:59:31;;;;;;;7.22;3.20;;;14.00;99.90;;;;;;5019052;28;20077;-86
2022/08/27 01:04:54;;;;;;;8.90;3.20;;;14.00;99.90;;;;;;5019060;28;20084;-86
2022/08/27 01:07:21;;;;;;;10.25;3.72;;;14.00;99.90;;;;;;5006265;28;20093;-87
2022/08/27 01:09:48;;;;;;;9.30;3.22;;;14.10;99.90;;;;;;4999562;28;20404;-87
2022/08/27 01:12:15;;;;;;;7.78;2.97;;;14.10;99.90;;;;;;4998598;28;20077;-86
2022/08/27 01:14:43;;;;;;;6.35;3.55;;;14.10;99.90;;;;;;4999610;28;20042;-86
2022/08/27 01:17:10;;;;;;;8.88;3.40;;;14.20;99.90;;;;;;4982816;28;20054;-86
2022/08/27 01:20:03;;;;;;;7.57;3.58;;;14.30;99.90;;;;;;4999036;28;20506;-87
2022/08/27 01:22:44;;;;;;;7.47;3.22;;;14.30;99.90;;;;;;4983092;28;20054;-86
2022/08/27 01:25:14;;;;;;;8.07;3.63;;;14.30;99.90;;;;;;4983369;28;20390;-86
2022/08/27 01:27:41;;;;;;;8.65;3.45;;;14.30;99.90;;;;;;4998955;28;20038;-86
2022/08/27 01:30:09;;;;;;;8.32;3.63;;;14.30;99.90;;;;;;4982745;28;20053;-87
2022/08/27 01:32:35;;;;;;;8.20;3.38;;;14.30;99.90;;;;;;4998833;28;20050;-87
2022/08/27 01:35:04;;;;;;;10.15;3.95;;;14.30;99.90;;;;;;4998440;28;20042;-86
2022/08/27 01:37:30;;;;;;;9.55;3.65;;;14.30;99.90;;;;;;4982695;28;20128;-87
2022/08/27 01:40:00;;;;;;;7.20;3.65;;;14.30;99.90;;;;;;5016554;28;20547;-87
2022/08/27 01:42:39;;;;;;;7.55;3.55;;;14.30;99.90;;;;;;4982496;28;20526;-87
2022/08/27 01:45:10;;;;;;;10.35;3.53;;;14.40;99.90;;;;;;4998763;28;20077;-86
2022/08/27 01:47:36;;;;;;;11.67;4.00;;;14.40;99.90;;;;;;4981978;28;20046;-87
2022/08/27 01:50:08;;;;;;;14.50;3.65;;;14.40;99.90;;;;;;4982461;28;20300;-87
2022/08/27 01:52:34;;;;;;;7.50;3.70;;;14.40;99.90;;;;;;5015814;28;20052;-87
2022/08/27 01:55:00;;;;;;;8.50;3.70;;;14.30;99.90;;;;;;4998484;28;20100;-86
2022/08/27 01:57:26;;;;;;;11.57;3.75;;;14.30;99.90;;;;;;4982135;28;20061;-86
2022/08/27 01:59:55;;;;;;;9.50;3.65;;;14.30;99.90;;;;;;4998340;28;20053;-86
2022/08/27 02:02:21;;;;;;;6.68;3.58;;;14.30;99.90;;;;;;4981973;28;20054;-86
2022/08/27 02:04:49;;;;;;;6.53;3.70;;;14.30;99.90;;;;;;5015657;28;20046;-86
2022/08/27 02:07:15;;;;;;;7.53;3.95;;;14.30;99.90;;;;;;5009635;28;20057;-86
2022/08/27 02:09:41;;;;;;;8.57;3.97;;;14.20;99.90;;;;;;5017727;28;20380;-86
2022/08/27 02:12:07;;;;;;;8.85;3.75;;;14.20;99.90;;;;;;5001462;28;20053;-86
2022/08/27 02:14:33;;;;;;;7.80;3.47;;;14.20;99.90;;;;;;5017136;28;20045;-86
2022/08/27 02:16:59;;;;;;;6.75;3.88;;;14.20;99.90;;;;;;5000754;28;20052;-87
2022/08/27 02:19:26;;;;;;;11.65;4.28;;;14.10;99.90;;;;;;5017368;28;20041;-86
2022/08/27 02:21:52;;;;;;;8.60;4.18;;;14.10;99.90;;;;;;5001124;28;20055;-86
2022/08/27 02:24:17;;;;;;;11.55;4.70;;;14.10;99.90;;;;;;5034943;28;20045;-86
2022/08/27 02:26:44;;;;;;;9.60;4.30;;;14.10;99.90;;;;;;5001108;28;20053;-86
2022/08/27 02:29:10;;;;;;;11.18;4.72;;;14.00;99.90;;;;;;5000960;28;20083;-86
2022/08/27 02:31:36;;;;;;;9.68;4.35;;;14.00;99.90;;;;;;5017197;28;20053;-86
2022/08/27 02:34:02;;;;;;;9.10;4.93;;;13.90;99.90;;;;;;5017627;28;20091;-87
2022/08/27 02:36:28;;;;;;;7.43;4.65;;;13.80;99.90;;;;;;5034005;28;20506;-87
2022/08/27 02:38:55;;;;;;;9.18;4.68;;;13.80;99.90;;;;;;5017430;28;20041;-87
2022/08/27 02:41:21;;;;;;;7.70;4.22;;;13.70;99.90;;;;;;5034671;28;20056;-86
2022/08/27 02:43:47;;;;;;;9.10;5.00;;;13.60;99.90;;;;;;5016692;28;20041;-86
2022/08/27 02:46:13;;;;;;;7.78;5.03;;;13.60;99.90;;;;;;5017228;28;20053;-86
2022/08/27 02:48:40;;;;;;;11.38;4.88;;;13.50;99.90;;;;;;5000889;28;20632;-87
2022/08/27 02:51:06;;;;;;;7.40;4.35;;;13.50;99.90;;;;;;5017103;28;20045;-87
2022/08/27 02:53:32;;;;;;;9.00;5.13;;;13.50;99.90;;;;;;5000703;28;20056;-87
2022/08/27 02:55:58;;;;;;;10.65;4.75;;;13.40;99.90;;;;;;5033403;28;20458;-87
2022/08/27 02:58:24;;;;;;;13.25;5.18;;;13.50;99.90;;;;;;5016754;28;20049;-87
2022/08/27 03:00:50;;;;;;;6.70;4.32;;;13.50;99.90;;;;;;5016862;28;20041;-87
2022/08/27 03:03:16;;;;;;;9.45;4.93;;;13.50;99.90;;;;;;5000882;28;20045;-86
2022/08/27 03:05:42;;;;;;;10.25;4.82;;;13.50;99.90;;;;;;5016844;28;20049;-86
2022/08/27 03:08:08;;;;;;;12.20;5.35;;;13.50;99.90;;;;;;5016573;28;20061;-86
2022/08/27 03:10:34;;;;;;;9.48;5.30;;;13.40;99.90;;;;;;5033055;28;20046;-87
2022/08/27 03:13:00;;;;;;;10.25;5.07;;;13.40;99.90;;;;;;5016118;28;20045;-86
2022/08/27 03:15:26;;;;;;;9.88;5.00;;;13.40;99.90;;;;;;5000060;28;20490;-86
2022/08/27 03:20:55;;;;;;;9.63;5.20;;;13.20;99.90;;;;;;4946078;28;20461;-86
2022/08/27 03:23:23;;;;;;;12.10;4.93;;;13.20;99.90;;;;;;4957047;28;20127;-86
2022/08/27 03:25:57;;;;;;;9.20;5.45;;;13.10;99.90;;;;;;4985678;28;20061;-87
2022/08/27 03:28:26;;;;;;;9.43;4.80;;;13.10;99.90;;;;;;5033065;28;20054;-87
2022/08/27 03:30:57;;;;;;;11.27;4.97;;;13.00;99.90;;;;;;5034067;28;20050;-86
2022/08/27 03:33:23;;;;;;;7.55;4.72;;;13.00;99.90;;;;;;4999997;28;20045;-86
2022/08/27 03:35:49;;;;;;;10.13;4.95;;;13.00;99.90;;;;;;5016226;28;20132;-86
2022/08/27 03:38:15;;;;;;;10.82;4.93;;;12.90;99.90;;;;;;4999778;28;20107;-86
2022/08/27 03:40:42;;;;;;;7.82;5.00;;;12.90;99.90;;;;;;5000048;28;20053;-86
2022/08/27 03:43:10;;;;;;;7.68;5.10;;;13.00;99.90;;;;;;4999598;28;20165;-86
2022/08/27 03:45:36;;;;;;;12.23;4.95;;;13.00;99.90;;;;;;5032629;28;20410;-87
2022/08/27 03:48:02;;;;;;;7.13;4.72;;;12.90;99.90;;;;;;4999759;28;20083;-86
2022/08/27 03:50:28;;;;;;;7.35;4.43;;;13.00;99.90;;;;;;5015946;28;20053;-86
2022/08/27 03:52:54;;;;;;;9.43;5.50;;;13.10;99.90;;;;;;5016133;28;20529;-86
2022/08/27 03:55:20;;;;;;;9.57;5.03;;;13.10;99.90;;;;;;4999836;28;20049;-86
2022/08/27 03:57:45;;;;;;;7.35;4.53;;;13.10;99.90;;;;;;5016055;28;20049;-86
2022/08/27 04:00:13;;;;;;;7.03;4.45;;;13.10;99.90;;;;;;5016006;28;20390;-86
2022/08/27 04:02:42;;;;;;;8.48;4.38;;;13.10;99.90;;;;;;5032399;28;20454;-86
2022/08/27 04:05:12;;;;;;;7.22;5.00;;;13.10;99.90;;;;;;5031960;28;20049;-86
2022/08/27 04:07:40;;;;;;;8.63;4.93;;;13.10;99.90;;;;;;5015543;28;20057;-87
2022/08/27 04:10:08;;;;;;;7.95;5.32;;;13.00;99.90;;;;;;4999373;28;20128;-86
2022/08/27 04:12:34;;;;;;;12.40;5.32;;;13.00;99.90;;;;;;4983326;28;20099;-86
2022/08/27 04:14:59;;;;;;;11.60;4.97;;;12.90;99.90;;;;;;5015771;28;20057;-87
2022/08/27 04:17:25;;;;;;;8.60;4.50;;;12.90;99.90;;;;;;5033098;28;20051;-86
2022/08/27 04:19:52;;;;;;;10.52;5.32;;;12.80;99.90;;;;;;5015602;28;20052;-86
2022/08/27 04:22:18;;;;;;;8.02;5.20;;;12.80;99.90;;;;;;5015983;28;20111;-86
2022/08/27 04:24:43;;;;;;;7.80;4.80;;;12.70;99.90;;;;;;5015619;28;20053;-86
2022/08/27 04:27:10;;;;;;;12.75;5.60;;;12.70;99.90;;;;;;4999229;28;20033;-86
2022/08/27 04:29:36;;;;;;;11.57;5.30;;;12.60;99.90;;;;;;5016313;28;20085;-86
2022/08/27 04:32:03;;;;;;;7.22;4.72;;;12.60;99.90;;;;;;5019230;28;20494;-86
2022/08/27 04:34:29;;;;;;;8.57;5.10;;;12.50;99.90;;;;;;5002940;28;20103;-86
2022/08/27 04:36:56;;;;;;;8.68;4.35;;;12.50;99.90;;;;;;5019107;28;20048;-86
2022/08/27 04:39:23;;;;;;;9.43;5.35;;;12.50;99.90;;;;;;5003114;28;20052;-86
2022/08/27 04:41:50;;;;;;;6.78;4.65;;;12.50;99.90;;;;;;5036523;28;20081;-86
2022/08/27 04:44:15;;;;;;;7.50;4.78;;;12.50;99.90;;;;;;5002391;28;20041;-86
2022/08/27 04:46:41;;;;;;;10.20;4.68;;;12.50;99.90;;;;;;5002775;28;20364;-86
2022/08/27 04:49:10;;;;;;;8.40;4.78;;;12.70;99.90;;;;;;5002383;28;20045;-86
2022/08/27 04:51:37;;;;;;;7.15;4.60;;;12.80;99.90;;;;;;5019387;28;20053;-87
2022/08/27 04:54:05;;;;;;;9.40;4.97;;;12.80;99.90;;;;;;5019223;28;20045;-87
2022/08/27 04:56:32;;;;;;;8.82;4.60;;;12.90;99.90;;;;;;5019018;28;20053;-86
2022/08/27 04:58:58;;;;;;;6.75;4.78;;;13.10;99.90;;;;;;5018999;28;20057;-86
2022/08/27 05:01:28;;;;;;;12.48;4.70;;;13.20;99.90;;;;;;5018928;28;20091;-86
2022/08/27 05:03:55;;;;;;;8.55;4.55;;;13.20;99.90;;;;;;5003679;28;20111;-86
2022/08/27 05:06:22;;;;;;;10.05;4.78;;;13.30;99.90;;;;;;5002627;28;20061;-86
2022/08/27 05:08:49;;;;;;;9.98;5.05;;;13.40;99.90;;;;;;5018950;28;20053;-86
2022/08/27 05:11:16;;;;;;;7.10;4.40;;;13.40;99.90;;;;;;5003013;28;20131;-86
2022/08/27 05:13:43;;;;;;;11.50;5.00;;;13.50;99.90;;;;;;5035850;28;20107;-86
2022/08/27 05:16:12;;;;;;;9.70;5.00;;;13.50;99.90;;;;;;5018479;28;20096;-86
2022/08/27 05:18:39;;;;;;;7.82;4.88;;;13.50;99.90;;;;;;5002638;28;20064;-87
2022/08/27 05:21:06;;;;;;;8.10;5.28;;;13.60;99.90;;;;;;5018824;28;20045;-86
2022/08/27 05:23:32;;;;;;;6.88;4.20;;;13.60;99.90;;;;;;5018722;28;20084;-86
2022/08/27 05:25:59;;;;;;;10.13;4.90;;;13.70;99.90;;;;;;5036271;28;20046;-86
2022/08/27 05:28:26;;;;;;;8.55;4.60;;;13.70;99.90;;;;;;5016616;28;20088;-86
2022/08/27 05:31:01;;;;;;;6.57;4.68;;;13.80;99.90;;;;;;4987163;28;20053;-87
2022/08/27 05:33:27;;;;;;;7.53;4.70;;;13.80;99.90;;;;;;4983790;28;20404;-86
2022/08/27 05:35:55;;;;;;;7.72;4.05;;;13.70;99.90;;;;;;5028313;28;20042;-87
2022/08/27 05:38:23;;;;;;;11.88;4.05;;;13.80;99.90;;;;;;4998945;28;20509;-87
2022/08/27 05:40:50;;;;;;;9.18;5.05;;;13.80;99.90;;;;;;5004585;28;20041;-87
2022/08/27 05:43:17;;;;;;;9.57;4.15;;;13.80;99.90;;;;;;5026026;28;20560;-87
2022/08/27 05:45:44;;;;;;;9.63;4.43;;;13.80;99.90;;;;;;4977676;28;20077;-86
2022/08/27 05:48:10;;;;;;;7.85;3.95;;;13.80;99.90;;;;;;5035060;28;20048;-86
2022/08/27 05:50:41;;;;;;;6.82;4.40;;;13.90;99.90;;;;;;5000072;28;20132;-86
2022/08/27 05:53:08;;;;;;;;;;;13.80;99.90;;;;;;4999587;28;20104;-86
2022/08/27 05:55:38;;;;;;;9.82;4.75;;;13.90;99.90;;;;;;4998508;28;19922;-86
2022/08/27 05:58:05;;;;;;;10.48;4.45;;;13.90;99.90;;;;;;4982420;28;20053;-85
2022/08/27 06:03:15;;;;;;;8.70;4.30;;;13.80;99.90;;;;;;5010087;28;20514;-85
2022/08/27 06:05:40;;;;;;;9.95;4.57;;;13.80;99.90;;;;;;5034072;28;20045;-87
2022/08/27 06:08:06;;;;;;;7.10;4.20;;;13.80;99.90;;;;;;5014768;28;20487;-85
2022/08/27 06:10:32;;;;;;;8.90;4.40;;;13.70;99.90;;;;;;5017356;28;20052;-86
2022/08/27 06:12:58;;;;;;;4.97;3.20;;;13.70;99.90;;;;;;5015959;28;20049;-86
2022/08/27 06:15:24;;;;;;;8.45;3.55;;;13.80;99.90;;;;;;5001265;28;20483;-86
2022/08/27 06:17:49;;;;;;;7.70;3.85;;;13.80;99.90;;;;;;5017725;28;20129;-86
2022/08/27 06:20:15;;;;;;;6.95;3.70;;;13.90;99.90;;;;;;5039408;28;20049;-86
2022/08/27 06:22:41;;;;;;;6.40;4.03;;;14.00;99.90;;;;;;5006350;28;20517;-85
2022/08/27 06:25:07;;;;;;;11.18;4.38;;;14.00;99.90;;;;;;4980683;28;20411;-86
2022/08/27 06:27:32;;;;;;;8.13;3.75;;;14.10;99.90;;;;;;4981696;28;20491;-86
2022/08/27 06:29:58;;;;;;;11.30;3.72;;;14.20;99.90;;;;;;5017244;28;20053;-86
2022/08/27 06:32:24;;;;;;;8.45;3.40;;;14.30;99.90;;;;;;4997472;28;20511;-87
2022/08/27 06:34:50;;;;;;;5.03;2.72;;;14.40;99.90;;;;;;5015228;28;20058;-87
2022/08/27 06:37:16;;;;;;;7.18;3.30;;;14.50;99.90;;;;;;5001065;28;20041;-86
2022/08/27 06:39:41;;;;;;;5.90;3.28;;;14.60;99.90;;;;;;5016889;28;20041;-87
2022/08/27 06:42:11;;;;;;;8.25;3.13;;;14.70;99.90;;;;;;5015852;28;20056;-86
2022/08/27 06:44:36;;;;;;;14.63;3.60;;;14.80;99.90;;;;;;5032587;28;20057;-86
2022/08/27 06:47:02;;;;;;;7.65;2.90;;;15.00;99.90;;;;;;4999499;28;20391;-86
2022/08/27 06:49:28;;;;;;;6.78;3.10;;;15.20;99.90;;;;;;4981907;28;20050;-87
2022/08/27 06:51:54;;;;;;;7.25;2.95;;;15.30;99.90;;;;;;4998885;28;20048;-87
2022/08/27 06:54:20;;;;;;;8.57;2.78;;;15.50;99.90;;;;;;5015055;28;20116;-87
2022/08/27 06:56:47;;;;;;;6.95;2.50;;;15.70;99.90;;;;;;5016308;28;20553;-87
2022/08/27 06:59:15;;;;;;;5.05;2.10;;;15.90;99.90;;;;;;5017038;28;20053;-87
2022/08/27 07:01:50;;;;;;;9.00;2.72;;;16.00;99.90;;;;;;5017271;28;20053;-87
2022/08/27 07:04:22;;;;;;;4.88;2.50;;;16.10;99.90;;;;;;5017544;28;20050;-89
2022/08/27 07:06:48;;;;;;;6.35;2.03;;;16.30;99.90;;;;;;5016399;28;20056;-88
2022/08/27 07:09:15;;;;;;;5.43;2.22;;;16.40;99.90;;;;;;5016983;28;20053;-88
2022/08/27 07:11:41;;;;;;;5.32;1.80;;;16.50;99.90;;;;;;5001283;28;20088;-87
2022/08/27 07:14:08;;;;;;;6.28;1.90;;;16.70;99.90;;;;;;4984107;28;20049;-87
2022/08/27 07:16:34;;;;;;;6.75;2.33;;;16.80;99.90;;;;;;5016798;28;20132;-86
2022/08/27 07:19:01;;;;;;;4.82;1.75;;;16.90;99.90;;;;;;5034475;28;20049;-87
2022/08/27 07:21:27;;;;;;;4.20;1.90;;;17.10;99.90;;;;;;5018300;28;20135;-88
2022/08/27 07:23:57;;;;;;;5.63;1.98;;;17.20;99.90;;;;;;5019125;28;20049;-87
2022/08/27 07:26:24;;;;;;;8.50;2.00;;;17.20;99.90;;;;;;5003335;28;20052;-86
2022/08/27 07:28:50;;;;;;;3.10;1.50;;;17.30;99.90;;;;;;5016915;28;20076;-87
2022/08/27 07:31:19;;;;;;;7.15;1.50;;;17.40;99.90;;;;;;5016372;28;20450;-87
2022/08/27 07:33:46;;;;;;;4.45;1.73;;;17.50;99.90;;;;;;4997009;28;20050;-87
2022/08/27 07:36:12;;;;;;;6.50;1.75;;;17.70;99.90;;;;;;4981243;28;20173;-87
2022/08/27 07:38:37;;;;;;;4.72;1.55;;;17.90;99.90;;;;;;5010262;28;20085;-87
2022/08/27 07:41:05;;;;;;;5.53;1.40;;;18.00;99.90;;;;;;4990762;28;20056;-88
2022/08/27 07:46:15;;;;;;;5.75;1.73;;;18.40;99.90;;;;;;5003929;28;20053;-87
2022/08/27 07:48:41;;;;;;;5.45;1.23;;;18.60;99.90;;;;;;5003627;28;20045;-88
2022/08/27 07:51:14;;;;;;;3.83;1.38;;;18.80;99.90;;;;;;5001632;28;20095;-87
2022/08/27 07:53:39;;;;;;;7.35;1.50;;;18.90;99.90;;;;;;5016553;28;20053;-87
2022/08/27 07:56:07;;;;;;;5.57;1.27;;;19.00;99.90;;;;;;4999287;28;20107;-87
2022/08/27 07:58:33;;;;;;;9.00;1.70;;;19.20;99.90;;;;;;5015812;28;20068;-87
2022/08/27 08:00:59;;;;;;;6.60;1.40;;;19.30;99.90;;;;;;4999241;28;20046;-86
2022/08/27 08:03:25;;;;;;;4.65;1.45;;;19.30;99.90;;;;;;5015765;28;20096;-86
2022/08/27 08:05:52;;;;;;;7.68;1.25;;;19.30;99.90;;;;;;5015623;28;20495;-87
2022/08/27 08:08:22;;;;;;;4.85;1.10;;;19.50;99.90;;;;;;4995589;28;20093;-87
2022/08/27 08:10:48;;;;;;;5.60;1.30;;;19.50;99.90;;;;;;4996102;28;20057;-87
2022/08/27 08:13:16;;;;;;;8.40;1.73;;;19.60;99.90;;;;;;4995730;28;20050;-86
2022/08/27 08:15:46;;;;;;;4.63;0.93;;;19.70;99.90;;;;;;5013775;28;20506;-90
2022/08/27 08:18:12;;;;;;;7.03;1.20;;;19.90;99.90;;;;;;4999441;28;20054;-86
2022/08/27 08:20:38;;;;;;;5.30;1.15;;;20.10;99.90;;;;;;5015954;28;20088;-87
2022/08/27 08:23:05;;;;;;;6.07;1.65;;;20.30;99.90;;;;;;5015578;28;20505;-87
2022/08/27 08:25:31;;;;;;;3.75;1.30;;;20.60;99.90;;;;;;5013935;28;20570;-90
2022/08/27 08:27:56;;;;;;;6.15;1.35;;;20.90;99.90;;;;;;4999036;28;20129;-89
2022/08/27 08:30:22;;;;;;;4.10;1.20;;;21.20;99.90;;;;;;4999187;28;20056;-88
2022/08/27 08:32:48;;;;;;;6.43;1.08;;;21.30;99.90;;;;;;4983211;28;20083;-88
2022/08/27 08:35:15;;;;;;;5.68;1.73;;;21.20;99.90;;;;;;5015103;28;20045;-90
2022/08/27 08:37:44;;;;;;;6.13;1.40;;;21.10;99.90;;;;;;4982163;28;20041;-88
2022/08/27 08:40:26;;;;;;;6.20;1.10;;;21.00;99.90;;;;;;4998995;28;20061;-89
2022/08/27 08:42:55;;;;;;;8.02;1.50;;;20.90;99.90;;;;;;5015123;28;20052;-92
2022/08/27 08:45:26;;;;;;;8.90;1.20;;;20.90;99.90;;;;;;4999096;28;20056;-87
2022/08/27 08:48:09;;;;;;;9.90;1.60;;;21.20;99.90;;;;;;5032040;28;20049;-87
2022/08/27 08:50:55;;;;;;;9.55;1.50;;;21.60;99.90;;;;;;5031111;28;20041;-88
2022/08/27 08:53:29;;;;;;;8.85;1.48;;;22.00;99.90;;;;;;4968823;28;20487;-86
2022/08/27 08:56:00;;;;;;;6.30;1.40;;;22.80;99.90;;;;;;5015517;28;20080;-90
2022/08/27 08:58:44;;;;;;;;;;;24.00;99.90;;;;;;4999542;28;20080;-88
2022/08/27 09:01:12;;;;;;;6.68;1.52;;;23.90;99.90;;;;;;4998114;28;19921;-86
2022/08/27 09:03:41;;;;;;;7.93;1.50;;;23.20;99.90;;;;;;5013220;28;20522;-86
2022/08/27 09:06:18;;;;;;;3.65;1.40;;;23.00;99.90;;;;;;5014790;28;20514;-86
2022/08/27 09:08:44;;;;;;;6.32;1.50;;;22.80;99.90;;;;;;5015023;28;20120;-88
2022/08/27 09:11:30;;;;;;;8.43;1.60;;;22.30;99.90;;;;;;5032376;28;20119;-86
2022/08/27 09:14:04;;;;;;;8.23;1.45;;;22.00;99.90;;;;;;5013880;28;20080;-86
2022/08/27 09:16:31;;;;;;;10.90;1.95;;;22.10;99.90;;;;;;5016971;28;20144;-87
2022/08/27 09:19:00;;;;;;;8.48;1.10;;;22.20;99.90;;;;;;5018757;28;20072;-87
2022/08/27 09:21:42;;;;;;;6.97;1.42;;;22.00;99.90;;;;;;5018798;28;20042;-86
2022/08/27 09:24:26;;;;;;;8.23;1.30;;;21.70;99.90;;;;;;5018662;28;20383;-87
2022/08/27 09:26:57;;;;;;;6.95;1.77;;;21.50;99.90;;;;;;5018245;28;20107;-88
2022/08/27 09:29:26;;;;;;;4.82;1.42;;;21.50;99.90;;;;;;5017827;28;20099;-88
2022/08/27 09:32:07;;;;;;;7.32;1.40;;;22.70;99.90;;;;;;5002102;28;20398;-88
2022/08/27 09:34:39;;;;;;;6.28;1.35;;;25.00;99.90;;;;;;5051385;28;20080;-86
2022/08/27 09:37:15;;;;;;;9.95;1.65;;;26.90;88.30;;;;;;5034761;28;20088;-87
2022/08/27 09:39:47;;;;;;;7.95;1.42;;;27.90;72.80;;;;;;5036090;28;20091;-87
2022/08/27 09:42:37;;;;;;;8.00;1.58;;;27.90;67.00;;;;;;5018118;28;20049;-91
2022/08/27 09:45:13;;;;;;;8.68;1.45;;;27.00;69.10;;;;;;5034095;28;20053;-87
2022/08/27 09:47:45;;;;;;;6.68;1.30;;;25.90;74.60;;;;;;5018720;28;20045;-88
2022/08/27 09:50:11;;;;;;;9.20;1.33;;;25.10;84.80;;;;;;5020401;28;20060;-87
2022/08/27 09:52:49;;;;;;;5.78;1.23;;;24.50;93.30;;;;;;5018759;28;20054;-90
2022/08/27 09:55:46;;;;;;;11.45;1.88;;;23.90;91.30;;;;;;5018085;28;20053;-87
2022/08/27 09:58:25;;;;;;;5.30;1.60;;;23.50;97.80;;;;;;5018568;28;20045;-87
2022/08/27 10:01:19;;;;;;;5.43;1.73;;;23.90;99.90;;;;;;5034865;28;20080;-89
2022/08/27 10:03:46;;;;;;;9.75;1.58;;;24.20;97.10;;;;;;5030654;28;20057;-87
2022/08/27 10:06:12;;;;;;;6.30;1.38;;;24.20;98.70;;;;;;5017739;28;20506;-86
2022/08/27 10:08:51;;;;;;;5.38;1.45;;;24.20;96.80;;;;;;5018370;28;20053;-89
2022/08/27 10:11:19;;;;;;;7.88;1.20;;;24.20;98.30;;;;;;5018256;28;20049;-86
2022/08/27 10:14:04;;;;;;;4.53;1.20;;;25.60;88.00;;;;;;5035078;28;20076;-89
2022/08/27 10:17:10;;;;;;;5.88;1.17;;;26.90;70.00;;;;;;5050684;28;20046;-89
2022/08/27 10:20:00;;;;;;;9.18;1.58;;;26.90;66.60;;;;;;5001553;28;20048;-88
2022/08/27 10:22:30;;;;;;;9.15;1.33;;;26.20;68.20;;;;;;5001493;28;20448;-87
2022/08/27 10:25:07;;;;;;;9.15;1.40;;;25.50;75.00;;;;;;5001515;28;20057;-87
2022/08/27 10:28:04;;;;;;;8.05;1.60;;;25.10;78.40;;;;;;5017878;28;20491;-87
2022/08/27 10:30:52;;;;;;;9.27;1.60;;;24.90;82.50;;;;;;5034515;28;20053;-88
2022/08/27 10:33:29;;;;;;;7.38;1.30;;;24.90;82.80;;;;;;5017974;28;20137;-88
2022/08/27 10:36:08;;;;;;;5.75;1.20;;;24.70;82.40;;;;;;5017957;28;20502;-86
2022/08/27 10:38:41;;;;;;;4.40;1.25;;;24.40;78.40;;;;;;5050906;28;20053;-87
2022/08/27 10:41:16;;;;;;;10.48;1.45;;;24.00;78.70;;;;;;5034665;28;20041;-86
2022/08/27 10:43:56;;;;;;;8.05;1.42;;;23.80;84.00;;;;;;5034012;28;20050;-89
2022/08/27 10:46:37;;;;;;;;;;;23.80;83.20;;;;;;5018283;28;20069;-88
2022/08/27 10:49:24;;;;;;;7.85;1.42;;;24.00;78.60;;;;;;4996486;28;20355;-86
2022/08/27 10:52:22;;;;;;;5.45;1.13;;;24.10;78.80;;;;;;5016770;28;20057;-87
2022/08/27 10:54:59;;;;;;;5.22;1.20;;;24.00;78.80;;;;;;5016508;28;20093;-87
2022/08/27 10:57:51;;;;;;;6.82;1.65;;;23.90;79.00;;;;;;5016404;28;20483;-90
2022/08/27 11:00:22;;;;;;;5.00;1.60;;;24.10;77.20;;;;;;5000366;28;20388;-86
2022/08/27 11:03:17;;;;;;;8.02;1.40;;;24.50;80.50;;;;;;5000343;28;20050;-86
2022/08/27 11:05:49;;;;;;;5.78;1.20;;;25.00;75.30;;;;;;5016636;28;20084;-89
2022/08/27 11:08:24;;;;;;;5.05;1.23;;;25.10;71.30;;;;;;4982100;28;20411;-88
2022/08/27 11:11:05;;;;;;;6.72;1.13;;;25.10;68.80;;;;;;4981479;28;20054;-87
2022/08/27 11:13:38;;;;;;;4.57;1.23;;;25.10;69.80;;;;;;4980715;28;20061;-86
2022/08/27 11:16:40;;;;;;;5.30;1.20;;;25.10;73.40;;;;;;4980633;28;20483;-87
2022/08/27 11:19:22;;;;;;;4.95;1.33;;;25.40;71.70;;;;;;4993912;28;20094;-86
2022/08/27 11:22:14;;;;;;;5.63;1.20;;;25.60;69.00;;;;;;4988508;28;20506;-87
2022/08/27 11:25:03;;;;;;;5.97;1.10;;;25.60;67.30;;;;;;5003967;28;20053;-86
2022/08/27 11:27:31;;;;;;;5.93;1.20;;;25.50;66.50;;;;;;4946447;28;20054;-87
2022/08/27 11:30:17;;;;;;;7.55;1.55;;;25.10;67.60;;;;;;4981041;28;20053;-86
2022/08/27 11:32:57;;;;;;;7.40;1.20;;;24.70;70.80;;;;;;4996728;28;20137;-88
2022/08/27 11:35:31;;;;;;;6.18;1.40;;;24.40;74.90;;;;;;4996672;28;20057;-89
2022/08/27 11:38:09;;;;;;;4.03;1.05;;;24.30;75.20;;;;;;4996399;28;20097;-90
2022/08/27 11:40:58;;;;;;;7.07;1.48;;;24.40;76.60;;;;;;4980127;28;20492;-88
2022/08/27 11:43:28;;;;;;;7.28;1.35;;;24.60;78.10;;;;;;4980589;28;20136;-88
2022/08/27 11:46:03;;;;;;;7.60;1.20;;;24.90;75.60;;;;;;4996922;28;20435;-91
2022/08/27 11:48:39;;;;;;;6.50;1.33;;;24.90;71.40;;;;;;4996498;28;20391;-89
2022/08/27 11:51:23;;;;;;;8.40;1.60;;;24.80;72.90;;;;;;4967734;28;20073;-87
2022/08/27 11:53:58;;;;;;;7.07;1.45;;;24.80;72.40;;;;;;4977381;28;20054;-88
2022/08/27 11:56:50;;;;;;;5.57;1.23;;;24.70;71.70;;;;;;4977141;28;20462;-86
2022/08/27 11:59:35;;;;;;;6.32;1.17;;;24.60;70.70;;;;;;4945434;28;20184;-89
2022/08/27 12:02:31;;;;;;;4.97;1.02;;;24.60;75.70;;;;;;4944678;28;20095;-89
2022/08/27 12:05:30;;;;;;;6.90;1.38;;;25.00;78.90;;;;;;4956185;28;20071;-87
2022/08/27 12:07:58;;;;;;;9.07;1.30;;;25.50;75.60;;;;;;4974507;28;20136;-90
2022/08/27 12:10:45;;;;;;;4.43;1.00;;;25.80;70.50;;;;;;4996161;28;20553;-88
2022/08/27 12:13:26;;;;;;;6.90;1.20;;;25.70;68.10;;;;;;4979029;28;20054;-88
2022/08/27 12:16:22;;;;;;;;;;;25.30;70.10;;;;;;4996986;28;20124;-87
2022/08/27 12:19:06;;;;;;;5.03;1.08;;;25.10;72.20;;;;;;4991646;28;19933;-87
2022/08/27 12:22:06;;;;;;;9.80;1.52;;;24.90;73.70;;;;;;4979481;28;20056;-87
2022/08/27 12:24:38;;;;;;;7.30;1.73;;;24.70;76.50;;;;;;4996090;28;20045;-89
2022/08/27 12:27:30;;;;;;;5.43;1.30;;;24.50;76.10;;;;;;4979491;28;20050;-91
2022/08/27 12:30:25;;;;;;;6.30;1.00;;;24.30;73.90;;;;;;4980663;28;20093;-87
2022/08/27 12:32:51;;;;;;;4.38;1.10;;;24.10;72.60;;;;;;4996398;28;20121;-87
2022/08/27 12:35:28;;;;;;;5.30;1.00;;;23.90;73.80;;;;;;4996353;28;20065;-86
2022/08/27 12:38:16;;;;;;;3.90;1.25;;;23.90;76.20;;;;;;4996103;28;20050;-88
2022/08/27 12:40:52;;;;;;;3.15;0.95;;;23.90;76.20;;;;;;5011715;28;20112;-89
2022/08/27 12:43:24;;;;;;;5.35;1.30;;;24.00;75.40;;;;;;4995694;28;20140;-87
2022/08/27 12:46:10;;;;;;;6.65;1.30;;;24.40;83.70;;;;;;4995997;28;20085;-87
2022/08/27 12:48:46;;;;;;;4.30;0.98;;;24.70;68.80;;;;;;4996038;28;20046;-87
2022/08/27 12:51:15;;;;;;;7.57;1.67;;;24.70;69.10;;;;;;4977482;28;20065;-88
2022/08/27 12:54:01;;;;;;;6.50;1.30;;;24.50;69.30;;;;;;5016969;28;20049;-87
2022/08/27 12:56:27;;;;;;;8.07;1.00;;;24.10;72.90;;;;;;4999592;28;20048;-86
2022/08/27 12:59:06;;;;;;;5.65;1.40;;;23.90;73.80;;;;;;4983330;28;20050;-87
2022/08/27 13:01:41;;;;;;;3.67;1.05;;;24.10;73.50;;;;;;4983431;28;20085;-86
2022/08/27 13:04:20;;;;;;;5.13;1.10;;;24.20;73.40;;;;;;4999667;28;20057;-86
2022/08/27 13:06:46;;;;;;;7.95;1.40;;;24.10;74.00;;;;;;4995759;28;20062;-88
2022/08/27 13:09:11;;;;;;;4.90;1.17;;;23.90;74.80;;;;;;4980125;28;20060;-87
2022/08/27 13:11:47;;;;;;;6.85;1.25;;;23.70;75.70;;;;;;4996071;28;20049;-86
2022/08/27 13:14:18;;;;;;;4.28;0.93;;;23.80;77.80;;;;;;4995795;28;20043;-86
2022/08/27 13:16:59;;;;;;;4.32;1.30;;;23.80;80.70;;;;;;4995853;28;20081;-85